sensor_id;sensor_type;location;lat;lon;timestamp;P1;durP1;ratioP1;P2;durP2;ratioP2
27412;SDS011;14871;52.702;5.230;2022-07-17T00:01:28;7.82;;;3.95;;
27412;SDS011;14871;52.702;5.230;2022-07-17T00:03:53;8.50;;;3.30;;
27412;SDS011;14871;52.702;5.230;2022-07-17T00:06:19;6.53;;;3.78;;
27412;SDS011;14871;52.702;5.230;2022-07-17T00:08:45;6.32;;;2.88;;
27412;SDS011;14871;52.702;5.230;2022-07-17T00:11:10;15.68;;;9.65;;
27412;SDS011;14871;52.702;5.230;2022-07-17T00:13:36;16.23;;;8.82;;
27412;SDS011;14871;52.702;5.230;2022-07-17T00:16:01;5.75;;;4.38;;
27412;SDS011;14871;52.702;5.230;2022-07-17T00:18:27;7.18;;;3.90;;
27412;SDS011;14871;52.702;5.230;2022-07-17T00:20:53;7.13;;;3.90;;
27412;SDS011;14871;52.702;5.230;2022-07-17T00:23:18;10.88;;;5.57;;
27412;SDS011;14871;52.702;5.230;2022-07-17T00:25:44;9.55;;;5.65;;
27412;SDS011;14871;52.702;5.230;2022-07-17T00:28:11;11.10;;;5.30;;
27412;SDS011;14871;52.702;5.230;2022-07-17T00:30:36;9.30;;;4.15;;
27412;SDS011;14871;52.702;5.230;2022-07-17T00:33:03;7.18;;;4.30;;
27412;SDS011;14871;52.702;5.230;2022-07-17T00:35:29;7.15;;;4.55;;
27412;SDS011;14871;52.702;5.230;2022-07-17T00:37:55;6.82;;;3.72;;
27412;SDS011;14871;52.702;5.230;2022-07-17T00:40:22;10.23;;;4.03;;
27412;SDS011;14871;52.702;5.230;2022-07-17T00:42:49;8.20;;;3.85;;
27412;SDS011;14871;52.702;5.230;2022-07-17T00:45:15;6.15;;;4.13;;
27412;SDS011;14871;52.702;5.230;2022-07-17T00:50:28;4.85;;;3.35;;
27412;SDS011;14871;52.702;5.230;2022-07-17T00:52:55;8.32;;;3.22;;
27412;SDS011;14871;52.702;5.230;2022-07-17T00:55:22;5.72;;;3.17;;
27412;SDS011;14871;52.702;5.230;2022-07-17T00:57:49;4.82;;;3.20;;
27412;SDS011;14871;52.702;5.230;2022-07-17T01:00:16;9.98;;;3.00;;
27412;SDS011;14871;52.702;5.230;2022-07-17T01:02:49;6.80;;;3.03;;
27412;SDS011;14871;52.702;5.230;2022-07-17T01:05:17;6.10;;;2.50;;
27412;SDS011;14871;52.702;5.230;2022-07-17T01:07:44;4.78;;;2.47;;
27412;SDS011;14871;52.702;5.230;2022-07-17T01:10:10;4.63;;;2.58;;
27412;SDS011;14871;52.702;5.230;2022-07-17T01:12:36;12.40;;;2.85;;
27412;SDS011;14871;52.702;5.230;2022-07-17T01:15:02;10.10;;;2.70;;
27412;SDS011;14871;52.702;5.230;2022-07-17T01:17:29;8.50;;;2.55;;
27412;SDS011;14871;52.702;5.230;2022-07-17T01:19:56;7.88;;;2.58;;
27412;SDS011;14871;52.702;5.230;2022-07-17T01:22:21;7.03;;;2.97;;
27412;SDS011;14871;52.702;5.230;2022-07-17T01:24:47;5.30;;;2.80;;
27412;SDS011;14871;52.702;5.230;2022-07-17T01:27:13;6.85;;;2.92;;
27412;SDS011;14871;52.702;5.230;2022-07-17T01:29:38;4.85;;;2.70;;
27412;SDS011;14871;52.702;5.230;2022-07-17T01:32:04;7.80;;;2.95;;
27412;SDS011;14871;52.702;5.230;2022-07-17T01:34:31;6.40;;;3.03;;
27412;SDS011;14871;52.702;5.230;2022-07-17T01:36:57;5.05;;;2.92;;
27412;SDS011;14871;52.702;5.230;2022-07-17T01:39:22;8.77;;;2.95;;
27412;SDS011;14871;52.702;5.230;2022-07-17T01:42:07;6.18;;;2.70;;
27412;SDS011;14871;52.702;5.230;2022-07-17T01:44:33;7.45;;;2.97;;
27412;SDS011;14871;52.702;5.230;2022-07-17T01:46:59;4.97;;;2.60;;
27412;SDS011;14871;52.702;5.230;2022-07-17T01:49:24;4.80;;;2.25;;
27412;SDS011;14871;52.702;5.230;2022-07-17T01:51:50;6.88;;;2.50;;
27412;SDS011;14871;52.702;5.230;2022-07-17T01:54:16;4.30;;;2.17;;
27412;SDS011;14871;52.702;5.230;2022-07-17T01:56:41;7.57;;;2.55;;
27412;SDS011;14871;52.702;5.230;2022-07-17T01:59:07;6.15;;;2.08;;
27412;SDS011;14871;52.702;5.230;2022-07-17T02:01:33;6.63;;;2.42;;
27412;SDS011;14871;52.702;5.230;2022-07-17T02:03:59;6.28;;;2.30;;
27412;SDS011;14871;52.702;5.230;2022-07-17T02:06:24;3.95;;;2.00;;
27412;SDS011;14871;52.702;5.230;2022-07-17T02:08:50;6.85;;;2.10;;
27412;SDS011;14871;52.702;5.230;2022-07-17T02:11:16;5.20;;;2.22;;
27412;SDS011;14871;52.702;5.230;2022-07-17T02:13:42;6.93;;;2.45;;
27412;SDS011;14871;52.702;5.230;2022-07-17T02:16:08;5.40;;;2.60;;
27412;SDS011;14871;52.702;5.230;2022-07-17T02:18:33;5.68;;;2.53;;
27412;SDS011;14871;52.702;5.230;2022-07-17T02:20:59;3.95;;;2.00;;
27412;SDS011;14871;52.702;5.230;2022-07-17T02:23:25;5.45;;;3.00;;
27412;SDS011;14871;52.702;5.230;2022-07-17T02:25:51;6.30;;;3.10;;
27412;SDS011;14871;52.702;5.230;2022-07-17T02:28:16;5.22;;;2.42;;
27412;SDS011;14871;52.702;5.230;2022-07-17T02:30:42;7.07;;;3.10;;
27412;SDS011;14871;52.702;5.230;2022-07-17T02:33:07;6.45;;;2.33;;
27412;SDS011;14871;52.702;5.230;2022-07-17T02:35:33;5.72;;;2.50;;
27412;SDS011;14871;52.702;5.230;2022-07-17T02:37:59;7.13;;;2.30;;
27412;SDS011;14871;52.702;5.230;2022-07-17T02:40:25;5.45;;;2.55;;
27412;SDS011;14871;52.702;5.230;2022-07-17T02:42:51;6.28;;;2.50;;
27412;SDS011;14871;52.702;5.230;2022-07-17T02:45:16;6.00;;;2.38;;
27412;SDS011;14871;52.702;5.230;2022-07-17T02:47:46;4.75;;;2.28;;
27412;SDS011;14871;52.702;5.230;2022-07-17T02:50:12;5.63;;;2.30;;
27412;SDS011;14871;52.702;5.230;2022-07-17T02:52:38;4.35;;;2.13;;
27412;SDS011;14871;52.702;5.230;2022-07-17T02:55:04;7.07;;;2.28;;
27412;SDS011;14871;52.702;5.230;2022-07-17T02:57:30;7.28;;;2.65;;
27412;SDS011;14871;52.702;5.230;2022-07-17T02:59:56;8.93;;;2.67;;
27412;SDS011;14871;52.702;5.230;2022-07-17T03:02:22;8.30;;;2.75;;
27412;SDS011;14871;52.702;5.230;2022-07-17T03:04:49;4.07;;;2.42;;
27412;SDS011;14871;52.702;5.230;2022-07-17T03:07:14;5.40;;;2.53;;
27412;SDS011;14871;52.702;5.230;2022-07-17T03:09:40;4.85;;;2.53;;
27412;SDS011;14871;52.702;5.230;2022-07-17T03:12:06;7.45;;;2.58;;
27412;SDS011;14871;52.702;5.230;2022-07-17T03:14:31;4.47;;;2.30;;
27412;SDS011;14871;52.702;5.230;2022-07-17T03:16:57;10.07;;;2.20;;
27412;SDS011;14871;52.702;5.230;2022-07-17T03:19:22;7.30;;;3.00;;
27412;SDS011;14871;52.702;5.230;2022-07-17T03:21:48;3.47;;;2.72;;
27412;SDS011;14871;52.702;5.230;2022-07-17T03:24:14;4.95;;;2.42;;
27412;SDS011;14871;52.702;5.230;2022-07-17T03:26:39;5.05;;;2.22;;
27412;SDS011;14871;52.702;5.230;2022-07-17T03:29:05;5.32;;;2.50;;
27412;SDS011;14871;52.702;5.230;2022-07-17T03:31:31;6.90;;;2.50;;
27412;SDS011;14871;52.702;5.230;2022-07-17T03:33:56;5.40;;;2.50;;
27412;SDS011;14871;52.702;5.230;2022-07-17T03:36:22;4.68;;;2.33;;
27412;SDS011;14871;52.702;5.230;2022-07-17T03:38:47;8.25;;;2.55;;
27412;SDS011;14871;52.702;5.230;2022-07-17T03:41:13;6.38;;;2.42;;
27412;SDS011;14871;52.702;5.230;2022-07-17T03:43:38;3.72;;;1.88;;
27412;SDS011;14871;52.702;5.230;2022-07-17T03:46:04;4.95;;;2.03;;
27412;SDS011;14871;52.702;5.230;2022-07-17T03:48:30;7.25;;;2.63;;
27412;SDS011;14871;52.702;5.230;2022-07-17T03:50:55;5.82;;;2.20;;
27412;SDS011;14871;52.702;5.230;2022-07-17T03:53:21;6.10;;;3.03;;
27412;SDS011;14871;52.702;5.230;2022-07-17T03:55:46;3.47;;;1.80;;
27412;SDS011;14871;52.702;5.230;2022-07-17T03:58:12;6.07;;;2.22;;
27412;SDS011;14871;52.702;5.230;2022-07-17T04:00:37;8.95;;;2.50;;
27412;SDS011;14871;52.702;5.230;2022-07-17T04:03:03;4.72;;;2.05;;
27412;SDS011;14871;52.702;5.230;2022-07-17T04:05:29;4.82;;;2.42;;
27412;SDS011;14871;52.702;5.230;2022-07-17T04:07:54;5.38;;;1.92;;
27412;SDS011;14871;52.702;5.230;2022-07-17T04:10:20;4.47;;;2.10;;
27412;SDS011;14871;52.702;5.230;2022-07-17T04:12:45;6.22;;;2.75;;
27412;SDS011;14871;52.702;5.230;2022-07-17T04:15:12;8.32;;;2.33;;
27412;SDS011;14871;52.702;5.230;2022-07-17T04:17:58;4.47;;;1.98;;
27412;SDS011;14871;52.702;5.230;2022-07-17T04:20:24;4.03;;;1.65;;
27412;SDS011;14871;52.702;5.230;2022-07-17T04:22:49;5.47;;;2.00;;
27412;SDS011;14871;52.702;5.230;2022-07-17T04:25:15;6.10;;;2.33;;
27412;SDS011;14871;52.702;5.230;2022-07-17T04:27:40;3.88;;;1.92;;
27412;SDS011;14871;52.702;5.230;2022-07-17T04:30:06;5.70;;;1.95;;
27412;SDS011;14871;52.702;5.230;2022-07-17T04:32:32;3.95;;;1.83;;
27412;SDS011;14871;52.702;5.230;2022-07-17T04:34:57;5.78;;;2.33;;
27412;SDS011;14871;52.702;5.230;2022-07-17T04:37:23;6.07;;;2.03;;
27412;SDS011;14871;52.702;5.230;2022-07-17T04:39:49;4.18;;;2.00;;
27412;SDS011;14871;52.702;5.230;2022-07-17T04:42:14;3.80;;;1.83;;
27412;SDS011;14871;52.702;5.230;2022-07-17T04:44:40;5.55;;;2.15;;
27412;SDS011;14871;52.702;5.230;2022-07-17T04:47:05;3.22;;;1.95;;
27412;SDS011;14871;52.702;5.230;2022-07-17T04:49:31;4.47;;;1.90;;
27412;SDS011;14871;52.702;5.230;2022-07-17T04:51:56;5.10;;;2.30;;
27412;SDS011;14871;52.702;5.230;2022-07-17T04:54:22;4.60;;;1.90;;
27412;SDS011;14871;52.702;5.230;2022-07-17T04:56:47;5.40;;;1.98;;
27412;SDS011;14871;52.702;5.230;2022-07-17T04:59:13;4.88;;;1.92;;
27412;SDS011;14871;52.702;5.230;2022-07-17T05:01:39;4.97;;;1.88;;
27412;SDS011;14871;52.702;5.230;2022-07-17T05:04:04;4.18;;;2.03;;
27412;SDS011;14871;52.702;5.230;2022-07-17T05:06:30;6.22;;;1.83;;
27412;SDS011;14871;52.702;5.230;2022-07-17T05:08:56;4.47;;;1.80;;
27412;SDS011;14871;52.702;5.230;2022-07-17T05:11:21;7.15;;;1.75;;
27412;SDS011;14871;52.702;5.230;2022-07-17T05:13:47;3.70;;;1.50;;
27412;SDS011;14871;52.702;5.230;2022-07-17T05:16:13;3.42;;;1.60;;
27412;SDS011;14871;52.702;5.230;2022-07-17T05:18:38;4.63;;;1.60;;
27412;SDS011;14871;52.702;5.230;2022-07-17T05:21:04;3.28;;;1.42;;
27412;SDS011;14871;52.702;5.230;2022-07-17T05:23:29;5.38;;;1.50;;
27412;SDS011;14871;52.702;5.230;2022-07-17T05:25:55;5.05;;;1.73;;
27412;SDS011;14871;52.702;5.230;2022-07-17T05:28:20;6.07;;;1.85;;
27412;SDS011;14871;52.702;5.230;2022-07-17T05:30:46;5.88;;;1.63;;
27412;SDS011;14871;52.702;5.230;2022-07-17T05:33:12;3.15;;;1.63;;
27412;SDS011;14871;52.702;5.230;2022-07-17T05:35:37;2.72;;;1.63;;
27412;SDS011;14871;52.702;5.230;2022-07-17T05:38:03;5.30;;;1.95;;
27412;SDS011;14871;52.702;5.230;2022-07-17T05:40:30;4.43;;;2.10;;
27412;SDS011;14871;52.702;5.230;2022-07-17T05:42:56;7.20;;;1.75;;
27412;SDS011;14871;52.702;5.230;2022-07-17T05:45:21;5.55;;;2.38;;
27412;SDS011;14871;52.702;5.230;2022-07-17T05:47:47;5.93;;;1.50;;
27412;SDS011;14871;52.702;5.230;2022-07-17T05:50:12;5.63;;;2.00;;
27412;SDS011;14871;52.702;5.230;2022-07-17T05:52:38;3.67;;;1.70;;
27412;SDS011;14871;52.702;5.230;2022-07-17T05:55:04;3.53;;;2.13;;
27412;SDS011;14871;52.702;5.230;2022-07-17T05:57:29;3.97;;;1.77;;
27412;SDS011;14871;52.702;5.230;2022-07-17T05:59:55;4.78;;;1.60;;
27412;SDS011;14871;52.702;5.230;2022-07-17T06:02:21;4.38;;;1.63;;
27412;SDS011;14871;52.702;5.230;2022-07-17T06:04:46;8.55;;;1.80;;
27412;SDS011;14871;52.702;5.230;2022-07-17T06:07:12;5.07;;;1.70;;
27412;SDS011;14871;52.702;5.230;2022-07-17T06:09:37;6.05;;;1.77;;
27412;SDS011;14871;52.702;5.230;2022-07-17T06:12:03;7.65;;;1.80;;
27412;SDS011;14871;52.702;5.230;2022-07-17T06:14:28;5.82;;;1.65;;
27412;SDS011;14871;52.702;5.230;2022-07-17T06:16:54;1.98;;;1.30;;
27412;SDS011;14871;52.702;5.230;2022-07-17T06:19:19;5.15;;;1.38;;
27412;SDS011;14871;52.702;5.230;2022-07-17T06:21:45;6.47;;;1.50;;
27412;SDS011;14871;52.702;5.230;2022-07-17T06:24:11;7.10;;;1.30;;
27412;SDS011;14871;52.702;5.230;2022-07-17T06:26:36;5.22;;;1.17;;
27412;SDS011;14871;52.702;5.230;2022-07-17T06:29:02;3.47;;;1.38;;
27412;SDS011;14871;52.702;5.230;2022-07-17T06:31:27;4.10;;;1.20;;
27412;SDS011;14871;52.702;5.230;2022-07-17T06:33:53;5.55;;;1.30;;
27412;SDS011;14871;52.702;5.230;2022-07-17T06:36:19;3.58;;;1.15;;
27412;SDS011;14871;52.702;5.230;2022-07-17T06:38:44;3.08;;;1.00;;
27412;SDS011;14871;52.702;5.230;2022-07-17T06:41:10;6.10;;;1.27;;
27412;SDS011;14871;52.702;5.230;2022-07-17T06:43:35;6.70;;;1.27;;
27412;SDS011;14871;52.702;5.230;2022-07-17T06:46:01;3.67;;;1.00;;
27412;SDS011;14871;52.702;5.230;2022-07-17T06:48:27;3.63;;;1.20;;
27412;SDS011;14871;52.702;5.230;2022-07-17T06:50:52;5.88;;;1.02;;
27412;SDS011;14871;52.702;5.230;2022-07-17T06:53:18;5.75;;;1.30;;
27412;SDS011;14871;52.702;5.230;2022-07-17T06:55:44;4.78;;;1.10;;
27412;SDS011;14871;52.702;5.230;2022-07-17T06:58:09;3.80;;;0.95;;
27412;SDS011;14871;52.702;5.230;2022-07-17T07:00:35;4.25;;;1.05;;
27412;SDS011;14871;52.702;5.230;2022-07-17T07:03:01;3.88;;;1.20;;
27412;SDS011;14871;52.702;5.230;2022-07-17T07:05:26;7.97;;;1.10;;
27412;SDS011;14871;52.702;5.230;2022-07-17T07:07:52;6.57;;;1.35;;
27412;SDS011;14871;52.702;5.230;2022-07-17T07:10:17;4.20;;;1.10;;
27412;SDS011;14871;52.702;5.230;2022-07-17T07:12:43;3.88;;;1.40;;
27412;SDS011;14871;52.702;5.230;2022-07-17T07:15:09;8.73;;;1.52;;
27412;SDS011;14871;52.702;5.230;2022-07-17T07:17:35;3.95;;;1.60;;
27412;SDS011;14871;52.702;5.230;2022-07-17T07:20:02;5.63;;;1.33;;
27412;SDS011;14871;52.702;5.230;2022-07-17T07:22:28;3.75;;;1.30;;
27412;SDS011;14871;52.702;5.230;2022-07-17T07:24:54;5.47;;;1.38;;
27412;SDS011;14871;52.702;5.230;2022-07-17T07:27:20;6.22;;;1.55;;
27412;SDS011;14871;52.702;5.230;2022-07-17T07:29:45;6.47;;;1.42;;
27412;SDS011;14871;52.702;5.230;2022-07-17T07:32:11;4.47;;;1.35;;
27412;SDS011;14871;52.702;5.230;2022-07-17T07:34:36;4.30;;;1.15;;
27412;SDS011;14871;52.702;5.230;2022-07-17T07:37:02;2.88;;;1.10;;
27412;SDS011;14871;52.702;5.230;2022-07-17T07:39:28;7.25;;;1.63;;
27412;SDS011;14871;52.702;5.230;2022-07-17T07:41:53;6.63;;;1.70;;
27412;SDS011;14871;52.702;5.230;2022-07-17T07:44:19;6.80;;;1.38;;
27412;SDS011;14871;52.702;5.230;2022-07-17T07:46:45;5.75;;;1.73;;
27412;SDS011;14871;52.702;5.230;2022-07-17T07:49:10;5.20;;;1.20;;
27412;SDS011;14871;52.702;5.230;2022-07-17T07:51:36;6.50;;;1.58;;
27412;SDS011;14871;52.702;5.230;2022-07-17T07:54:02;8.40;;;1.60;;
27412;SDS011;14871;52.702;5.230;2022-07-17T07:56:27;5.22;;;2.00;;
27412;SDS011;14871;52.702;5.230;2022-07-17T07:58:53;5.68;;;1.50;;
27412;SDS011;14871;52.702;5.230;2022-07-17T08:01:19;4.53;;;1.30;;
27412;SDS011;14871;52.702;5.230;2022-07-17T08:03:44;3.92;;;1.20;;
27412;SDS011;14871;52.702;5.230;2022-07-17T08:06:10;6.35;;;1.40;;
27412;SDS011;14871;52.702;5.230;2022-07-17T08:08:36;2.15;;;0.98;;
27412;SDS011;14871;52.702;5.230;2022-07-17T08:11:01;6.00;;;1.25;;
27412;SDS011;14871;52.702;5.230;2022-07-17T08:13:27;4.72;;;1.20;;
27412;SDS011;14871;52.702;5.230;2022-07-17T08:15:53;5.30;;;1.48;;
27412;SDS011;14871;52.702;5.230;2022-07-17T08:18:18;4.70;;;1.55;;
27412;SDS011;14871;52.702;5.230;2022-07-17T08:20:44;3.42;;;1.25;;
27412;SDS011;14871;52.702;5.230;2022-07-17T08:23:09;7.40;;;1.30;;
27412;SDS011;14871;52.702;5.230;2022-07-17T08:25:35;5.53;;;1.15;;
27412;SDS011;14871;52.702;5.230;2022-07-17T08:28:01;2.40;;;1.10;;
27412;SDS011;14871;52.702;5.230;2022-07-17T08:30:27;4.72;;;1.15;;
27412;SDS011;14871;52.702;5.230;2022-07-17T08:32:52;4.68;;;1.23;;
27412;SDS011;14871;52.702;5.230;2022-07-17T08:35:18;2.95;;;0.98;;
27412;SDS011;14871;52.702;5.230;2022-07-17T08:37:47;3.78;;;0.98;;
27412;SDS011;14871;52.702;5.230;2022-07-17T08:40:15;4.40;;;1.02;;
27412;SDS011;14871;52.702;5.230;2022-07-17T08:42:42;4.43;;;0.95;;
27412;SDS011;14871;52.702;5.230;2022-07-17T08:45:08;4.68;;;1.02;;
27412;SDS011;14871;52.702;5.230;2022-07-17T08:47:35;2.75;;;1.30;;
27412;SDS011;14871;52.702;5.230;2022-07-17T08:50:01;6.38;;;1.05;;
27412;SDS011;14871;52.702;5.230;2022-07-17T08:52:28;2.47;;;1.00;;
27412;SDS011;14871;52.702;5.230;2022-07-17T08:54:54;3.30;;;0.80;;
27412;SDS011;14871;52.702;5.230;2022-07-17T08:57:20;5.55;;;1.13;;
27412;SDS011;14871;52.702;5.230;2022-07-17T08:59:49;4.15;;;0.90;;
27412;SDS011;14871;52.702;5.230;2022-07-17T09:02:14;6.35;;;1.67;;
27412;SDS011;14871;52.702;5.230;2022-07-17T09:04:40;3.65;;;1.00;;
27412;SDS011;14871;52.702;5.230;2022-07-17T09:07:06;6.57;;;1.48;;
27412;SDS011;14871;52.702;5.230;2022-07-17T09:09:32;3.90;;;1.25;;
27412;SDS011;14871;52.702;5.230;2022-07-17T09:11:59;3.63;;;1.00;;
27412;SDS011;14871;52.702;5.230;2022-07-17T09:14:36;4.70;;;0.90;;
27412;SDS011;14871;52.702;5.230;2022-07-17T09:17:04;5.47;;;1.35;;
27412;SDS011;14871;52.702;5.230;2022-07-17T09:19:39;5.55;;;1.20;;
27412;SDS011;14871;52.702;5.230;2022-07-17T09:22:13;4.90;;;2.10;;
27412;SDS011;14871;52.702;5.230;2022-07-17T09:27:07;4.10;;;1.20;;
27412;SDS011;14871;52.702;5.230;2022-07-17T09:29:33;4.75;;;1.30;;
27412;SDS011;14871;52.702;5.230;2022-07-17T09:31:59;5.93;;;1.15;;
27412;SDS011;14871;52.702;5.230;2022-07-17T09:34:25;4.63;;;1.33;;
27412;SDS011;14871;52.702;5.230;2022-07-17T09:37:00;5.43;;;0.95;;
27412;SDS011;14871;52.702;5.230;2022-07-17T09:39:36;4.97;;;0.95;;
27412;SDS011;14871;52.702;5.230;2022-07-17T09:42:03;3.08;;;1.17;;
27412;SDS011;14871;52.702;5.230;2022-07-17T09:44:28;4.55;;;1.00;;
27412;SDS011;14871;52.702;5.230;2022-07-17T09:46:54;2.65;;;0.93;;
27412;SDS011;14871;52.702;5.230;2022-07-17T09:49:21;6.95;;;1.42;;
27412;SDS011;14871;52.702;5.230;2022-07-17T09:51:51;5.47;;;1.20;;
27412;SDS011;14871;52.702;5.230;2022-07-17T09:54:17;2.58;;;1.20;;
27412;SDS011;14871;52.702;5.230;2022-07-17T09:56:46;2.47;;;1.00;;
27412;SDS011;14871;52.702;5.230;2022-07-17T09:59:15;4.28;;;1.10;;
27412;SDS011;14871;52.702;5.230;2022-07-17T10:01:43;5.47;;;1.27;;
27412;SDS011;14871;52.702;5.230;2022-07-17T10:04:10;3.47;;;0.90;;
27412;SDS011;14871;52.702;5.230;2022-07-17T10:06:37;3.45;;;1.20;;
27412;SDS011;14871;52.702;5.230;2022-07-17T10:09:03;1.92;;;0.93;;
27412;SDS011;14871;52.702;5.230;2022-07-17T10:11:30;2.97;;;0.93;;
27412;SDS011;14871;52.702;5.230;2022-07-17T10:14:08;3.58;;;1.15;;
27412;SDS011;14871;52.702;5.230;2022-07-17T10:16:36;3.22;;;0.90;;
27412;SDS011;14871;52.702;5.230;2022-07-17T10:19:14;5.45;;;1.00;;
27412;SDS011;14871;52.702;5.230;2022-07-17T10:21:51;3.83;;;1.30;;
27412;SDS011;14871;52.702;5.230;2022-07-17T10:24:19;2.70;;;1.30;;
27412;SDS011;14871;52.702;5.230;2022-07-17T10:26:44;3.53;;;1.05;;
27412;SDS011;14871;52.702;5.230;2022-07-17T10:31:56;3.20;;;1.00;;
27412;SDS011;14871;52.702;5.230;2022-07-17T10:34:39;3.95;;;1.13;;
27412;SDS011;14871;52.702;5.230;2022-07-17T10:39:50;3.53;;;0.93;;
27412;SDS011;14871;52.702;5.230;2022-07-17T10:45:33;3.90;;;1.08;;
27412;SDS011;14871;52.702;5.230;2022-07-17T10:48:07;4.75;;;1.20;;
27412;SDS011;14871;52.702;5.230;2022-07-17T10:50:37;3.05;;;0.90;;
27412;SDS011;14871;52.702;5.230;2022-07-17T10:53:14;1.60;;;0.93;;
27412;SDS011;14871;52.702;5.230;2022-07-17T10:58:23;2.90;;;1.08;;
27412;SDS011;14871;52.702;5.230;2022-07-17T11:03:41;4.30;;;1.10;;
27412;SDS011;14871;52.702;5.230;2022-07-17T11:06:10;2.97;;;0.98;;
27412;SDS011;14871;52.702;5.230;2022-07-17T11:08:40;3.08;;;0.82;;
27412;SDS011;14871;52.702;5.230;2022-07-17T11:11:13;3.35;;;1.38;;
27412;SDS011;14871;52.702;5.230;2022-07-17T11:13:40;3.80;;;1.42;;
27412;SDS011;14871;52.702;5.230;2022-07-17T11:16:06;2.35;;;1.08;;
27412;SDS011;14871;52.702;5.230;2022-07-17T11:18:32;1.70;;;1.08;;
27412;SDS011;14871;52.702;5.230;2022-07-17T11:20:59;1.92;;;1.05;;
27412;SDS011;14871;52.702;5.230;2022-07-17T11:23:27;1.38;;;0.93;;
27412;SDS011;14871;52.702;5.230;2022-07-17T11:26:01;1.50;;;1.00;;
27412;SDS011;14871;52.702;5.230;2022-07-17T11:31:22;2.85;;;1.33;;
27412;SDS011;14871;52.702;5.230;2022-07-17T11:33:50;6.10;;;1.42;;
27412;SDS011;14871;52.702;5.230;2022-07-17T11:36:19;1.95;;;0.60;;
27412;SDS011;14871;52.702;5.230;2022-07-17T11:38:46;3.10;;;0.93;;
27412;SDS011;14871;52.702;5.230;2022-07-17T11:41:12;2.80;;;1.27;;
27412;SDS011;14871;52.702;5.230;2022-07-17T11:43:40;3.67;;;1.30;;
27412;SDS011;14871;52.702;5.230;2022-07-17T11:46:07;1.08;;;0.93;;
27412;SDS011;14871;52.702;5.230;2022-07-17T11:48:33;2.15;;;0.90;;
27412;SDS011;14871;52.702;5.230;2022-07-17T11:50:59;3.05;;;1.15;;
27412;SDS011;14871;52.702;5.230;2022-07-17T11:53:35;2.72;;;1.20;;
27412;SDS011;14871;52.702;5.230;2022-07-17T11:56:02;2.70;;;1.40;;
27412;SDS011;14871;52.702;5.230;2022-07-17T11:58:39;1.55;;;0.95;;
27412;SDS011;14871;52.702;5.230;2022-07-17T12:01:10;2.40;;;1.08;;
27412;SDS011;14871;52.702;5.230;2022-07-17T12:03:36;3.10;;;1.15;;
27412;SDS011;14871;52.702;5.230;2022-07-17T12:06:02;2.15;;;1.10;;
27412;SDS011;14871;52.702;5.230;2022-07-17T12:08:27;3.55;;;1.60;;
27412;SDS011;14871;52.702;5.230;2022-07-17T12:11:04;2.88;;;1.20;;
27412;SDS011;14871;52.702;5.230;2022-07-17T12:13:40;3.45;;;1.75;;
27412;SDS011;14871;52.702;5.230;2022-07-17T12:16:17;1.83;;;0.88;;
27412;SDS011;14871;52.702;5.230;2022-07-17T12:18:43;1.92;;;1.20;;
27412;SDS011;14871;52.702;5.230;2022-07-17T12:21:09;1.30;;;0.80;;
27412;SDS011;14871;52.702;5.230;2022-07-17T12:23:38;1.88;;;1.13;;
27412;SDS011;14871;52.702;5.230;2022-07-17T12:26:08;1.90;;;1.20;;
27412;SDS011;14871;52.702;5.230;2022-07-17T12:28:36;2.15;;;1.10;;
27412;SDS011;14871;52.702;5.230;2022-07-17T12:31:02;1.40;;;1.13;;
27412;SDS011;14871;52.702;5.230;2022-07-17T12:33:28;2.25;;;1.30;;
27412;SDS011;14871;52.702;5.230;2022-07-17T12:35:54;2.20;;;0.98;;
27412;SDS011;14871;52.702;5.230;2022-07-17T12:38:20;2.00;;;1.30;;
27412;SDS011;14871;52.702;5.230;2022-07-17T12:40:46;1.90;;;1.20;;
27412;SDS011;14871;52.702;5.230;2022-07-17T12:43:11;1.73;;;1.08;;
27412;SDS011;14871;52.702;5.230;2022-07-17T12:45:38;2.42;;;1.42;;
27412;SDS011;14871;52.702;5.230;2022-07-17T12:48:04;1.98;;;1.23;;
27412;SDS011;14871;52.702;5.230;2022-07-17T12:50:29;1.90;;;1.20;;
27412;SDS011;14871;52.702;5.230;2022-07-17T12:52:55;2.08;;;0.95;;
27412;SDS011;14871;52.702;5.230;2022-07-17T12:55:21;2.35;;;1.83;;
27412;SDS011;14871;52.702;5.230;2022-07-17T12:57:46;1.70;;;1.30;;
27412;SDS011;14871;52.702;5.230;2022-07-17T13:00:12;3.55;;;1.50;;
27412;SDS011;14871;52.702;5.230;2022-07-17T13:02:39;3.45;;;1.23;;
27412;SDS011;14871;52.702;5.230;2022-07-17T13:05:05;2.35;;;1.50;;
27412;SDS011;14871;52.702;5.230;2022-07-17T13:07:31;2.00;;;1.27;;
27412;SDS011;14871;52.702;5.230;2022-07-17T13:09:57;1.92;;;1.20;;
27412;SDS011;14871;52.702;5.230;2022-07-17T13:12:22;2.05;;;1.27;;
27412;SDS011;14871;52.702;5.230;2022-07-17T13:14:48;2.22;;;1.30;;
27412;SDS011;14871;52.702;5.230;2022-07-17T13:17:14;2.83;;;1.50;;
27412;SDS011;14871;52.702;5.230;2022-07-17T13:19:40;2.97;;;1.20;;
27412;SDS011;14871;52.702;5.230;2022-07-17T13:22:06;2.60;;;1.48;;
27412;SDS011;14871;52.702;5.230;2022-07-17T13:24:32;3.22;;;1.70;;
27412;SDS011;14871;52.702;5.230;2022-07-17T13:26:58;2.58;;;1.60;;
27412;SDS011;14871;52.702;5.230;2022-07-17T13:29:24;2.05;;;1.20;;
27412;SDS011;14871;52.702;5.230;2022-07-17T13:31:53;2.63;;;1.20;;
27412;SDS011;14871;52.702;5.230;2022-07-17T13:34:20;2.28;;;1.30;;
27412;SDS011;14871;52.702;5.230;2022-07-17T13:36:47;2.10;;;1.50;;
27412;SDS011;14871;52.702;5.230;2022-07-17T13:39:13;2.85;;;1.70;;
27412;SDS011;14871;52.702;5.230;2022-07-17T13:41:39;2.33;;;1.48;;
27412;SDS011;14871;52.702;5.230;2022-07-17T13:44:05;3.42;;;1.55;;
27412;SDS011;14871;52.702;5.230;2022-07-17T13:46:31;1.90;;;1.60;;
27412;SDS011;14871;52.702;5.230;2022-07-17T13:48:57;3.83;;;1.63;;
27412;SDS011;14871;52.702;5.230;2022-07-17T13:51:23;3.55;;;1.70;;
27412;SDS011;14871;52.702;5.230;2022-07-17T13:53:49;2.03;;;1.75;;
27412;SDS011;14871;52.702;5.230;2022-07-17T13:56:14;3.58;;;2.00;;
27412;SDS011;14871;52.702;5.230;2022-07-17T13:58:40;2.80;;;2.10;;
27412;SDS011;14871;52.702;5.230;2022-07-17T14:01:06;3.20;;;2.00;;
27412;SDS011;14871;52.702;5.230;2022-07-17T14:03:32;3.08;;;2.00;;
27412;SDS011;14871;52.702;5.230;2022-07-17T14:05:58;3.65;;;1.95;;
27412;SDS011;14871;52.702;5.230;2022-07-17T14:08:23;3.42;;;2.20;;
27412;SDS011;14871;52.702;5.230;2022-07-17T14:10:49;3.28;;;2.42;;
27412;SDS011;14871;52.702;5.230;2022-07-17T14:13:15;3.50;;;2.30;;
27412;SDS011;14871;52.702;5.230;2022-07-17T14:15:41;2.63;;;2.00;;
27412;SDS011;14871;52.702;5.230;2022-07-17T14:18:06;2.60;;;1.95;;
27412;SDS011;14871;52.702;5.230;2022-07-17T14:20:32;4.22;;;2.10;;
27412;SDS011;14871;52.702;5.230;2022-07-17T14:22:58;3.47;;;2.38;;
27412;SDS011;14871;52.702;5.230;2022-07-17T14:25:23;4.65;;;2.40;;
27412;SDS011;14871;52.702;5.230;2022-07-17T14:27:49;4.38;;;2.55;;
27412;SDS011;14871;52.702;5.230;2022-07-17T14:30:15;3.05;;;2.38;;
27412;SDS011;14871;52.702;5.230;2022-07-17T14:32:40;3.67;;;2.65;;
27412;SDS011;14871;52.702;5.230;2022-07-17T14:35:06;3.30;;;2.50;;
27412;SDS011;14871;52.702;5.230;2022-07-17T14:37:33;3.53;;;2.33;;
27412;SDS011;14871;52.702;5.230;2022-07-17T14:39:59;4.22;;;2.08;;
27412;SDS011;14871;52.702;5.230;2022-07-17T14:42:26;4.50;;;2.70;;
27412;SDS011;14871;52.702;5.230;2022-07-17T14:44:51;3.33;;;2.60;;
27412;SDS011;14871;52.702;5.230;2022-07-17T14:47:17;4.80;;;2.72;;
27412;SDS011;14871;52.702;5.230;2022-07-17T14:49:43;4.57;;;2.90;;
27412;SDS011;14871;52.702;5.230;2022-07-17T14:52:08;3.15;;;2.40;;
27412;SDS011;14871;52.702;5.230;2022-07-17T14:54:34;4.68;;;2.47;;
27412;SDS011;14871;52.702;5.230;2022-07-17T14:56:59;3.95;;;2.83;;
27412;SDS011;14871;52.702;5.230;2022-07-17T14:59:26;3.13;;;2.50;;
27412;SDS011;14871;52.702;5.230;2022-07-17T15:01:51;3.75;;;2.53;;
27412;SDS011;14871;52.702;5.230;2022-07-17T15:04:17;4.03;;;2.38;;
27412;SDS011;14871;52.702;5.230;2022-07-17T15:06:43;3.50;;;2.30;;